Time;durP1;ratioP1;P1;durP2;ratioP2;P2;SDS_P1;SDS_P2;PMS_P1;PMS_P2;Temp;Humidity;BMP_temperature;BMP_pressure;BME280_temperature;BME280_humidity;BME280_pressure;Samples;Min_cycle;Max_cycle;Signal;HPM_P1;HPM_P2
2022/01/26 00:00:29;;;;;;;31.67;15.82;;;;;;;3.79;70.11;100915.50;4392990;32;35068;-67
2022/01/26 00:05:47;;;;;;;1.95;1.75;;;;;;;3.07;72.72;100926.34;4393272;32;33882;-67
2022/01/26 00:08:15;;;;;;;1.85;1.58;;;;;;;3.08;72.82;100918.09;4392798;32;34856;-67
2022/01/26 00:10:42;;;;;;;1.37;0.95;;;;;;;3.44;71.52;100916.84;4392925;32;33954;-68
2022/01/26 00:13:10;;;;;;;26.17;14.38;;;;;;;3.56;70.61;100925.34;4393173;32;34284;-68
2022/01/26 00:15:37;;;;;;;27.73;14.40;;;;;;;3.24;71.87;100919.06;4392818;32;33846;-69
2022/01/26 00:18:05;;;;;;;2.15;1.95;;;;;;;3.53;70.92;100921.16;4392871;32;33791;-68
2022/01/26 00:20:43;;;;;;;28.35;13.93;;;;;;;3.17;72.48;100923.44;4392960;32;34191;-68
2022/01/26 00:28:58;;;;;;;27.45;13.57;;;;;;;3.59;70.85;100923.16;4392544;32;33937;-67
2022/01/26 00:39:39;;;;;;;1.98;1.05;;;;;;;3.71;70.46;100926.28;4392320;32;34838;-67
2022/01/26 00:42:06;;;;;;;28.98;14.38;;;;;;;3.62;70.55;100930.84;4392469;32;34243;-68
2022/01/26 00:44:44;;;;;;;27.42;14.63;;;;;;;3.76;69.98;100923.91;4392620;32;34163;-68
2022/01/26 00:47:12;;;;;;;28.23;14.57;;;;;;;3.63;70.63;100929.03;4392706;32;33801;-67
2022/01/26 00:49:40;;;;;;;29.17;14.43;;;;;;;3.48;70.70;100926.22;4392388;32;33679;-68
2022/01/26 00:52:13;;;;;;;28.00;14.90;;;;;;;3.42;71.75;100934.97;4392389;32;34172;-67
2022/01/26 00:54:40;;;;;;;0.82;0.82;;;;;;;3.56;70.86;100928.84;4392212;32;34277;-68
2022/01/26 00:57:08;;;;;;;26.85;13.70;;;;;;;3.43;71.45;100929.41;4392491;32;32856;-68
2022/01/26 00:59:35;;;;;;;26.60;13.85;;;;;;;3.50;70.99;100929.56;4392104;32;34738;-67
2022/01/26 01:02:03;;;;;;;1.33;1.12;;;;;;;3.66;70.25;100928.66;4392149;32;34377;-68
2022/01/26 01:04:31;;;;;;;30.75;14.85;;;;;;;3.57;70.48;100925.16;4392230;32;34250;-67
2022/01/26 01:07:01;;;;;;;2.15;1.02;;;;;;;3.35;71.11;100913.34;4392517;32;34709;-68
2022/01/26 01:09:33;;;;;;;28.35;14.35;;;;;;;3.57;70.10;100921.66;4391811;32;33856;-67
2022/01/26 01:12:02;;;;;;;2.83;1.45;;;;;;;3.34;70.69;100918.87;4392198;32;34330;-68
2022/01/26 01:14:35;;;;;;;2.65;2.05;;;;;;;3.47;70.35;100914.63;4392213;32;34032;-68
2022/01/26 01:17:05;;;;;;;30.17;14.85;;;;;;;3.64;69.86;100914.56;4392182;32;33486;-68
2022/01/26 01:19:41;;;;;;;30.80;16.02;;;;;;;3.11;71.98;100914.28;4378662;32;33810;-68
2022/01/26 01:32:54;;;;;;;28.75;15.27;;;;;;;3.21;71.25;100925.63;4391540;32;35106;-69
2022/01/26 01:35:22;;;;;;;1.30;1.15;;;;;;;3.00;72.22;100925.31;4391874;32;35002;-67
2022/01/26 01:37:50;;;;;;;29.15;14.23;;;;;;;2.78;73.31;100922.34;4391738;32;34602;-68
2022/01/26 01:40:17;;;;;;;26.60;13.95;;;;;;;2.88;72.96;100923.00;4391738;32;34028;-67
2022/01/26 01:42:45;;;;;;;0.95;0.62;;;;;;;2.55;74.61;100929.38;4393092;32;35176;-68
2022/01/26 01:45:12;;;;;;;32.88;15.20;;;;;;;2.82;73.98;100920.16;4393767;32;34139;-68
2022/01/26 01:47:39;;;;;;;30.83;15.30;;;;;;;2.76;74.17;100921.66;4393712;32;33550;-68
2022/01/26 01:50:11;;;;;;;32.63;16.15;;;;;;;2.34;75.95;100921.84;4393960;32;33816;-68
2022/01/26 01:52:38;;;;;;;7.32;1.95;;;;;;;3.05;73.42;100917.63;4393631;32;34906;-68
2022/01/26 01:55:06;;;;;;;28.25;13.77;;;;;;;2.99;73.71;100921.00;4393909;32;35038;-68
2022/01/26 01:57:34;;;;;;;30.70;14.80;;;;;;;3.12;72.75;100923.12;4393860;32;33864;-67
2022/01/26 02:00:04;;;;;;;31.12;14.35;;;;;;;2.70;74.83;100924.19;4393523;32;33986;-68
2022/01/26 02:02:32;;;;;;;29.30;15.38;;;;;;;2.71;74.79;100929.38;4393934;32;35166;-68
2022/01/26 02:05:00;;;;;;;30.67;14.87;;;;;;;3.33;72.28;100922.59;4393737;32;34672;-68
2022/01/26 02:07:27;;;;;;;28.70;14.80;;;;;;;2.98;73.22;100932.69;4393683;32;33890;-67
2022/01/26 02:09:54;;;;;;;28.55;14.38;;;;;;;2.72;74.36;100920.38;4393826;32;33947;-68
2022/01/26 02:12:24;;;;;;;30.98;15.05;;;;;;;3.37;71.82;100926.56;4393812;32;35053;-67
2022/01/26 02:15:03;;;;;;;26.48;14.38;;;;;;;3.41;71.39;100909.97;4393569;32;33799;-69
2022/01/26 02:20:45;;;;;;;29.25;15.18;;;;;;;2.58;74.70;100913.00;4393657;32;33744;-68
2022/01/26 02:56:12;;;;;;;29.08;14.50;;;;;;;2.92;71.05;100891.34;4393365;32;34173;-67
2022/01/26 03:06:54;;;;;;;2.00;1.10;;;;;;;3.39;69.83;100887.00;4377095;32;34990;-68
2022/01/26 03:09:28;;;;;;;0.88;0.88;;;;;;;2.98;71.11;100884.44;4393263;32;35037;-67
2022/01/26 03:11:56;;;;;;;25.62;13.15;;;;;;;3.36;69.97;100882.00;4393088;32;33921;-68
2022/01/26 03:18:09;;;;;;;0.57;0.57;;;;;;;3.11;70.42;100871.37;4393110;32;33958;-66
2022/01/26 03:20:00;;;;;;;1.55;1.40;;;;;;;3.25;70.06;100875.16;4389082;32;33883;-67
2022/01/26 03:35:58;;;;;;;24.08;12.82;;;;;;;3.15;70.33;100887.94;4392877;32;34765;-67
2022/01/26 03:38:38;;;;;;;1.15;0.90;;;;;;;3.10;70.21;100887.63;4393482;32;35122;-67
2022/01/26 03:43:57;;;;;;;0.57;0.57;;;;;;;2.84;71.49;100881.47;4378245;32;33901;-68
2022/01/26 03:46:24;;;;;;;23.30;11.98;;;;;;;3.36;70.04;100888.19;4393039;32;33747;-68
2022/01/26 03:48:52;;;;;;;23.95;12.70;;;;;;;3.24;70.14;100893.09;4393105;32;34829;-68
2022/01/26 03:51:19;;;;;;;1.23;1.05;;;;;;;3.29;70.33;100890.72;4393109;32;34247;-68
2022/01/26 03:53:47;;;;;;;23.95;12.63;;;;;;;3.45;69.78;100887.13;4392937;32;33728;-67
2022/01/26 03:56:14;;;;;;;1.65;1.12;;;;;;;3.41;69.70;100893.03;4393015;32;33109;-68
2022/01/26 03:58:42;;;;;;;23.15;12.05;;;;;;;3.44;69.86;100893.53;4392956;32;34280;-67
2022/01/26 04:01:10;;;;;;;21.90;11.68;;;;;;;3.45;69.48;100892.50;4392612;32;34246;-67
2022/01/26 04:03:38;;;;;;;21.05;11.18;;;;;;;3.12;70.78;100893.66;4393075;32;33780;-66
2022/01/26 04:06:05;;;;;;;19.12;11.18;;;;;;;3.15;70.85;100895.97;4391855;32;33781;-68
2022/01/26 04:08:34;;;;;;;25.92;12.25;;;;;;;3.11;70.56;100891.97;4392917;32;34273;-66
2022/01/26 04:13:32;;;;;;;0.93;0.93;;;;;;;2.99;71.51;100886.97;4392564;32;34660;-68
2022/01/26 04:16:00;;;;;;;1.30;1.20;;;;;;;3.42;70.50;100879.44;4393017;32;33783;-67
2022/01/26 04:18:35;;;;;;;25.50;12.25;;;;;;;3.40;70.25;100883.31;4392908;32;34183;-67
2022/01/26 04:21:13;;;;;;;23.77;12.73;;;;;;;3.58;69.61;100883.91;4392833;32;34184;-67
2022/01/26 04:23:53;;;;;;;7.50;4.30;;;;;;;3.64;69.05;100882.38;4392693;32;34655;-67
2022/01/26 04:26:27;;;;;;;24.55;11.48;;;;;;;3.74;68.91;100892.88;4392611;32;34034;-68
2022/01/26 04:29:01;;;;;;;23.65;12.05;;;;;;;3.64;68.79;100888.56;4392767;32;33930;-68
2022/01/26 04:31:29;;;;;;;23.08;11.55;;;;;;;3.55;69.04;100884.25;4392635;32;34259;-67
2022/01/26 04:33:56;;;;;;;26.05;11.95;;;;;;;3.78;68.06;100881.63;4392702;32;33578;-68
2022/01/26 04:36:30;;;;;;;20.27;11.63;;;;;;;3.84;67.56;100872.03;4392555;32;33802;-67
2022/01/26 04:39:02;;;;;;;22.27;11.68;;;;;;;3.59;68.29;100874.03;4392487;32;34349;-68
2022/01/26 04:41:38;;;;;;;23.70;11.77;;;;;;;3.74;67.45;100871.41;4392773;32;34222;-67
2022/01/26 04:44:13;;;;;;;20.88;11.57;;;;;;;3.71;67.01;100880.66;4392184;32;34343;-68
2022/01/26 04:46:40;;;;;;;21.02;11.55;;;;;;;3.80;66.39;100881.44;4392455;32;33928;-68
2022/01/26 04:49:08;;;;;;;22.83;11.63;;;;;;;3.61;66.61;100883.56;4392500;32;33984;-67
2022/01/26 04:51:36;;;;;;;25.50;12.00;;;;;;;3.39;67.49;100879.81;4392360;32;33395;-68
2022/01/26 04:54:03;;;;;;;23.17;11.70;;;;;;;3.30;67.95;100880.84;4392494;32;34560;-71
2022/01/26 04:56:31;;;;;;;23.67;11.18;;;;;;;3.38;67.43;100883.50;4392447;32;34415;-69
2022/01/26 04:58:58;;;;;;;1.75;1.45;;;;;;;3.48;67.05;100873.38;4392165;32;34408;-72
2022/01/26 05:01:25;;;;;;;27.45;11.73;;;;;;;3.59;66.72;100874.84;4392184;32;34195;-67
2022/01/26 05:03:53;;;;;;;19.62;11.05;;;;;;;3.38;66.90;100869.25;4392450;32;33523;-68
2022/01/26 05:06:21;;;;;;;26.92;12.50;;;;;;;3.61;66.01;100874.69;4392089;32;33576;-68
2022/01/26 05:08:48;;;;;;;1.30;0.88;;;;;;;3.74;65.51;100874.09;4392218;32;34137;-68
2022/01/26 05:11:27;;;;;;;20.33;11.45;;;;;;;3.49;66.02;100868.84;4392449;32;35230;-66
2022/01/26 05:13:56;;;;;;;21.70;12.02;;;;;;;3.44;65.99;100871.25;4391916;32;33533;-68
2022/01/26 05:16:25;;;;;;;20.45;11.35;;;;;;;3.53;65.76;100872.88;4392058;32;34913;-68
2022/01/26 05:18:54;;;;;;;1.12;1.10;;;;;;;3.40;66.46;100876.09;4393820;32;35038;-68
2022/01/26 05:21:23;;;;;;;1.50;0.98;;;;;;;3.41;66.25;100875.09;4394085;32;34414;-68
2022/01/26 05:23:50;;;;;;;20.65;11.80;;;;;;;3.45;65.84;100865.69;4394141;32;33669;-67
2022/01/26 05:26:19;;;;;;;1.12;0.88;;;;;;;3.29;66.33;100869.28;4393695;32;33752;-68
2022/01/26 05:28:46;;;;;;;26.67;13.07;;;;;;;3.81;64.84;100862.47;4394040;32;34283;-68
2022/01/26 05:31:14;;;;;;;26.98;13.55;;;;;;;3.55;65.13;100867.34;4394137;32;34237;-68
2022/01/26 05:33:42;;;;;;;0.73;0.73;;;;;;;3.70;65.16;100876.31;4393765;32;33831;-67
2022/01/26 05:36:09;;;;;;;26.62;15.00;;;;;;;3.80;64.89;100866.19;4394382;32;34095;-68
2022/01/26 05:38:37;;;;;;;1.12;1.02;;;;;;;3.87;64.79;100859.09;4394076;32;34291;-68
2022/01/26 05:41:04;;;;;;;31.62;14.65;;;;;;;3.52;66.05;100867.66;4394075;32;35038;-67
2022/01/26 05:43:33;;;;;;;28.45;15.25;;;;;;;3.53;66.10;100866.66;4393692;32;33694;-70
2022/01/26 05:46:07;;;;;;;1.48;0.90;;;;;;;3.59;65.81;100874.03;4380562;32;33978;-68
2022/01/26 05:48:37;;;;;;;25.50;14.30;;;;;;;3.42;66.80;100875.94;4393999;32;34166;-68
2022/01/26 05:51:07;;;;;;;25.50;13.98;;;;;;;3.17;67.44;100876.00;4393864;32;34296;-68
2022/01/26 05:53:35;;;;;;;25.75;13.40;;;;;;;3.20;67.71;100881.03;4393615;32;34460;-68
2022/01/26 05:56:03;;;;;;;26.48;14.13;;;;;;;3.40;67.41;100875.28;4393913;32;33966;-68
2022/01/26 05:58:31;;;;;;;24.77;13.73;;;;;;;3.23;68.00;100886.06;4393717;32;35009;-68
2022/01/26 06:01:00;;;;;;;24.75;13.05;;;;;;;3.36;67.68;100880.13;4393608;32;35097;-68
2022/01/26 06:03:29;;;;;;;26.52;13.82;;;;;;;3.01;68.87;100881.44;4393730;32;33944;-68
2022/01/26 06:05:57;;;;;;;27.42;14.48;;;;;;;3.61;67.64;100886.25;4393898;32;34901;-67
2022/01/26 06:08:25;;;;;;;26.80;14.18;;;;;;;3.86;66.26;100880.72;4393457;32;35097;-67
2022/01/26 06:10:55;;;;;;;26.12;13.65;;;;;;;3.54;67.54;100882.56;4393585;32;34795;-68
2022/01/26 06:13:22;;;;;;;27.08;13.60;;;;;;;3.77;67.17;100887.16;4393690;32;33853;-67
2022/01/26 06:15:50;;;;;;;27.48;13.93;;;;;;;3.30;68.83;100886.19;4393245;32;34739;-67
2022/01/26 06:18:18;;;;;;;1.27;0.70;;;;;;;3.31;69.00;100887.87;4393587;32;34207;-68
2022/01/26 06:20:45;;;;;;;23.05;12.70;;;;;;;3.44;68.84;100893.53;4393810;32;35089;-68
2022/01/26 06:23:13;;;;;;;21.67;12.43;;;;;;;3.21;69.74;100887.25;4393371;32;33495;-68
2022/01/26 06:25:41;;;;;;;1.48;1.37;;;;;;;3.22;69.74;100892.44;4393581;32;34660;-67
2022/01/26 06:28:12;;;;;;;22.40;11.82;;;;;;;3.41;69.25;100898.41;4393231;32;34200;-68
2022/01/26 06:30:41;;;;;;;24.50;12.43;;;;;;;3.56;68.74;100896.66;4393198;32;34632;-67
2022/01/26 06:33:09;;;;;;;4.20;1.37;;;;;;;2.92;70.88;100891.34;4379821;32;34401;-68
2022/01/26 06:35:36;;;;;;;22.05;12.27;;;;;;;3.18;71.16;100890.28;4380243;32;33954;-68
2022/01/26 06:38:04;;;;;;;2.25;1.25;;;;;;;3.19;70.95;100886.56;4393467;32;33861;-69
2022/01/26 06:40:31;;;;;;;24.20;13.57;;;;;;;3.37;70.46;100894.37;4392021;32;33860;-69
2022/01/26 06:43:03;;;;;;;0.95;0.70;;;;;;;3.12;71.31;100893.66;4377553;32;34644;-70
2022/01/26 06:45:34;;;;;;;22.45;12.05;;;;;;;3.10;71.68;100890.31;4378070;32;33705;-69
2022/01/26 06:50:39;;;;;;;23.90;12.48;;;;;;;2.73;73.07;100895.22;4378143;32;35056;-69
2022/01/26 06:53:06;;;;;;;21.20;11.45;;;;;;;2.83;73.22;100890.53;4352710;32;34606;-70
2022/01/26 06:55:35;;;;;;;1.77;1.67;;;;;;;2.91;72.74;100888.81;4378282;32;33730;-67
2022/01/26 06:58:03;;;;;;;20.60;11.10;;;;;;;2.97;72.12;100898.88;4364553;32;33777;-67
2022/01/26 07:00:30;;;;;;;1.02;1.02;;;;;;;3.56;70.36;100893.12;4378346;32;33923;-70
2022/01/26 07:02:58;;;;;;;1.95;1.27;;;;;;;3.11;71.39;100894.63;4376746;32;33765;-70
2022/01/26 07:05:26;;;;;;;1.75;1.33;;;;;;;3.45;70.73;100891.69;4378546;32;34453;-70
2022/01/26 07:07:53;;;;;;;21.75;11.10;;;;;;;3.09;71.27;100889.47;4378361;32;34213;-71
2022/01/26 07:10:21;;;;;;;21.87;11.90;;;;;;;2.72;72.99;100885.53;4376246;32;35090;-68
2022/01/26 07:12:48;;;;;;;21.15;11.63;;;;;;;2.99;72.36;100899.53;4374903;32;33778;-66
2022/01/26 07:23:23;;;;;;;3.30;1.48;;;;;;;3.06;72.34;100892.47;4374983;32;33715;-67
2022/01/26 07:25:51;;;;;;;21.73;11.77;;;;;;;3.35;70.77;100891.91;4376737;32;34821;-68
2022/01/26 07:28:18;;;;;;;21.10;11.93;;;;;;;3.45;70.35;100883.63;4376424;32;34845;-67
2022/01/26 07:30:46;;;;;;;22.23;12.63;;;;;;;3.17;71.25;100877.87;4376630;32;35053;-67
2022/01/26 07:33:13;;;;;;;23.55;14.50;;;;;;;3.76;69.91;100875.59;4376445;32;33871;-67
2022/01/26 07:35:41;;;;;;;33.65;17.52;;;;;;;3.84;69.13;100883.59;4376569;32;34770;-67
2022/01/26 07:38:08;;;;;;;32.47;17.77;;;;;;;4.07;68.15;100886.31;4376880;32;34288;-68
2022/01/26 07:40:36;;;;;;;25.73;15.55;;;;;;;3.83;68.96;100889.97;4376650;32;34835;-67
2022/01/26 07:43:03;;;;;;;2.33;1.85;;;;;;;3.76;69.20;100886.34;4376341;32;33516;-67
2022/01/26 07:45:31;;;;;;;4.22;1.95;;;;;;;3.79;68.95;100891.34;4376622;32;33421;-68
2022/01/26 07:47:58;;;;;;;1.27;1.05;;;;;;;3.98;68.03;100879.31;4376220;32;34370;-69
2022/01/26 07:50:26;;;;;;;24.60;12.93;;;;;;;3.78;68.84;100888.81;4376876;32;35082;-68
2022/01/26 07:52:53;;;;;;;20.98;10.82;;;;;;;3.94;68.04;100886.06;4376781;32;34314;-67
2022/01/26 07:55:23;;;;;;;5.47;3.60;;;;;;;3.96;68.08;100883.22;4374044;32;33846;-66
2022/01/26 07:57:51;;;;;;;17.45;9.68;;;;;;;4.14;67.50;100889.09;4375555;32;34085;-66
2022/01/26 08:00:19;;;;;;;18.20;10.20;;;;;;;3.90;67.71;100882.06;4375964;32;33994;-67
2022/01/26 08:02:47;;;;;;;18.77;9.40;;;;;;;4.01;67.01;100892.38;4374896;32;34636;-67
2022/01/26 08:05:16;;;;;;;16.00;8.65;;;;;;;3.75;67.95;100881.97;4362603;32;33962;-67
2022/01/26 08:07:44;;;;;;;16.90;9.52;;;;;;;3.47;69.34;100887.81;4375922;32;34999;-66
2022/01/26 08:10:12;;;;;;;15.98;9.35;;;;;;;3.55;68.70;100884.25;4375284;32;33957;-68
2022/01/26 08:12:39;;;;;;;18.48;9.65;;;;;;;3.43;69.54;100886.47;4375441;32;34589;-65
2022/01/26 08:15:25;;;;;;;17.15;9.85;;;;;;;3.22;70.09;100884.41;4376100;32;34726;-78
2022/01/26 08:17:54;;;;;;;19.08;9.20;;;;;;;4.06;67.96;100886.47;4375395;32;34902;-67
2022/01/26 08:20:22;;;;;;;17.85;9.10;;;;;;;3.66;68.62;100886.53;4375567;32;34070;-66
2022/01/26 08:22:52;;;;;;;16.45;8.85;;;;;;;3.84;68.06;100877.37;4376256;32;33656;-66
2022/01/26 08:25:20;;;;;;;0.62;0.62;;;;;;;3.43;69.52;100889.16;4376237;32;34839;-66
2022/01/26 08:27:54;;;;;;;19.40;9.82;;;;;;;3.59;68.72;100880.22;4376199;32;34250;-66
2022/01/26 08:30:22;;;;;;;16.90;8.88;;;;;;;3.61;69.08;100877.37;4375231;32;35065;-66
2022/01/26 08:32:49;;;;;;;16.87;9.20;;;;;;;3.46;69.16;100878.09;4375729;32;34582;-69
2022/01/26 08:35:17;;;;;;;15.20;8.70;;;;;;;3.57;69.33;100878.72;4376322;32;34029;-67
2022/01/26 08:38:02;;;;;;;18.60;8.98;;;;;;;3.76;68.62;100880.97;4376105;32;34101;-66
2022/01/26 08:40:30;;;;;;;15.23;9.27;;;;;;;3.23;69.90;100877.19;4376166;32;33764;-66
2022/01/26 08:42:57;;;;;;;15.90;9.18;;;;;;;3.75;68.44;100884.66;4375930;32;34591;-66
2022/01/26 08:45:25;;;;;;;17.90;9.60;;;;;;;4.06;67.41;100875.72;4376128;32;34971;-67
2022/01/26 08:47:52;;;;;;;15.85;8.40;;;;;;;3.52;68.63;100895.34;4375474;32;35056;-67
2022/01/26 08:50:20;;;;;;;18.08;9.57;;;;;;;3.68;68.23;100894.44;4376036;32;34292;-66
2022/01/26 08:52:47;;;;;;;16.10;8.98;;;;;;;4.02;67.32;100882.50;4374446;32;33449;-65
2022/01/26 08:55:16;;;;;;;19.95;10.10;;;;;;;4.15;66.85;100890.81;4376121;32;34627;-66
2022/01/26 08:57:43;;;;;;;16.35;8.77;;;;;;;4.20;66.65;100890.25;4375723;32;34872;-67
2022/01/26 09:00:13;;;;;;;18.85;8.93;;;;;;;3.81;68.01;100891.19;4375993;32;34303;-67
2022/01/26 09:02:40;;;;;;;17.60;9.07;;;;;;;4.37;66.32;100893.66;4374187;32;33710;-67
2022/01/26 09:05:08;;;;;;;15.05;8.02;;;;;;;4.18;66.55;100897.66;4375519;32;34146;-66
2022/01/26 09:07:36;;;;;;;20.33;10.15;;;;;;;4.65;65.53;100894.75;4375744;32;34340;-68
2022/01/26 09:10:06;;;;;;;0.80;0.70;;;;;;;4.75;64.76;100901.72;4376162;32;34192;-70
2022/01/26 09:12:36;;;;;;;17.08;9.75;;;;;;;4.57;65.20;100897.50;4375409;32;33690;-66
2022/01/26 09:15:06;;;;;;;17.23;8.75;;;;;;;4.86;64.48;100899.44;4375745;32;34136;-67
2022/01/26 09:17:34;;;;;;;20.08;9.55;;;;;;;5.06;64.00;100885.47;4374889;32;35071;-67
2022/01/26 09:20:04;;;;;;;0.88;0.85;;;;;;;4.97;64.10;100886.53;4375620;32;34095;-66
2022/01/26 09:22:32;;;;;;;1.95;1.12;;;;;;;4.66;64.68;100900.97;4374146;32;33362;-67
2022/01/26 09:24:59;;;;;;;16.60;8.77;;;;;;;4.88;64.09;100891.16;4375594;32;34092;-68
2022/01/26 09:27:27;;;;;;;13.55;7.72;;;;;;;4.34;65.22;100886.78;4373681;32;33694;-66
2022/01/26 09:29:54;;;;;;;15.68;8.38;;;;;;;4.43;65.37;100891.09;4374900;32;33923;-67
2022/01/26 09:32:22;;;;;;;15.02;7.68;;;;;;;4.47;65.26;100891.53;4375514;32;34602;-66
2022/01/26 09:34:50;;;;;;;15.18;8.23;;;;;;;4.40;65.77;100893.28;4374128;32;33715;-66
2022/01/26 09:37:17;;;;;;;16.48;9.45;;;;;;;3.93;67.22;100897.84;4375334;32;34191;-65
2022/01/26 09:39:46;;;;;;;1.80;1.67;;;;;;;4.53;64.99;100906.94;4375291;32;34106;-67
2022/01/26 09:42:14;;;;;;;14.30;8.15;;;;;;;4.24;66.00;100896.94;4375656;32;34754;-72
2022/01/26 09:44:43;;;;;;;13.35;7.78;;;;;;;4.87;64.51;100894.91;4374026;32;33845;-70
2022/01/26 09:47:10;;;;;;;13.98;7.57;;;;;;;4.73;64.66;100900.06;4375625;32;34718;-65
2022/01/26 09:49:39;;;;;;;14.70;7.75;;;;;;;4.82;63.89;100897.31;4375803;32;34047;-67
2022/01/26 09:52:55;;;;;;;0.80;0.80;;;;;;;4.27;65.54;100897.41;4361530;32;34429;-67
2022/01/26 09:55:05;;;;;;;4.28;1.75;;;;;;;4.65;64.25;100899.31;4369344;32;33297;-70
2022/01/26 09:57:33;;;;;;;14.82;7.75;;;;;;;5.00;64.02;100886.19;4375198;32;34884;-67
2022/01/26 10:00:00;;;;;;;14.95;7.45;;;;;;;4.93;64.05;100883.41;4374765;32;34538;-66
2022/01/26 10:02:30;;;;;;;15.35;8.13;;;;;;;4.89;63.88;100879.41;4375269;32;33270;-67
2022/01/26 10:05:05;;;;;;;12.18;7.10;;;;;;;5.39;62.56;100877.84;4374895;32;33876;-69
2022/01/26 10:15:56;;;;;;;14.52;7.75;;;;;;;4.54;64.79;100872.88;4377020;32;34753;-70
2022/01/26 10:18:23;;;;;;;12.60;7.20;;;;;;;4.45;64.86;100872.06;4365269;32;33881;-73
2022/01/26 10:20:57;;;;;;;15.80;7.50;;;;;;;4.94;63.90;100866.25;4377388;32;34954;-70
2022/01/26 10:23:37;;;;;;;12.80;7.68;;;;;;;4.87;64.14;100854.56;4376888;32;34572;-73
2022/01/26 10:26:06;;;;;;;13.68;7.25;;;;;;;4.73;64.75;100864.28;4363981;32;33465;-72
2022/01/26 10:28:43;;;;;;;12.73;7.35;;;;;;;4.95;64.16;100876.00;4375688;32;34827;-69
2022/01/26 10:31:21;;;;;;;14.52;7.35;;;;;;;4.86;63.73;100875.25;4361917;32;34174;-72
2022/01/26 10:34:11;;;;;;;13.07;7.32;;;;;;;5.48;61.55;100871.31;4364025;32;33826;-69
2022/01/26 10:36:41;;;;;;;12.90;7.90;;;;;;;5.27;62.20;100873.94;4376877;32;33998;-70
2022/01/26 10:39:19;;;;;;;15.18;7.80;;;;;;;5.29;62.44;100869.22;4376786;32;34413;-70
2022/01/26 10:41:49;;;;;;;14.32;7.35;;;;;;;5.48;62.21;100867.81;4377346;32;34190;-74
2022/01/26 10:44:18;;;;;;;15.95;7.72;;;;;;;5.70;61.04;100866.00;4376398;32;33551;-69
2022/01/26 10:46:46;;;;;;;15.35;7.70;;;;;;;5.65;61.06;100854.97;4377088;32;33786;-66
2022/01/26 10:49:19;;;;;;;13.73;7.53;;;;;;;5.66;60.90;100860.16;4377063;32;34064;-70
2022/01/26 10:54:23;;;;;;;15.70;8.32;;;;;;;5.83;60.21;100859.91;4377021;32;33623;-67
2022/01/26 10:56:51;;;;;;;17.48;8.95;;;;;;;5.70;60.33;100858.78;4375879;32;34489;-67
2022/01/26 10:59:19;;;;;;;14.52;7.47;;;;;;;5.81;59.95;100848.50;4376896;32;33955;-68
2022/01/26 11:01:46;;;;;;;12.23;6.62;;;;;;;5.74;60.62;100857.37;4375876;32;35434;-67
2022/01/26 11:04:14;;;;;;;13.48;7.50;;;;;;;5.94;59.98;100857.63;4376640;32;34621;-67
2022/01/26 11:06:43;;;;;;;12.55;6.87;;;;;;;5.94;59.68;100857.63;4377188;32;33928;-67
2022/01/26 11:09:13;;;;;;;12.30;6.37;;;;;;;5.93;59.66;100847.00;4375889;32;33773;-66
2022/01/26 11:11:41;;;;;;;12.68;7.03;;;;;;;5.86;60.13;100848.78;4377053;32;33862;-71
2022/01/26 11:14:21;;;;;;;11.43;6.50;;;;;;;5.59;60.24;100845.78;4376780;32;34549;-68
2022/01/26 11:16:54;;;;;;;11.12;6.15;;;;;;;5.27;61.75;100855.97;4377160;32;34705;-68
2022/01/26 11:19:23;;;;;;;12.37;6.50;;;;;;;5.63;60.67;100847.06;4375596;32;35305;-70
2022/01/26 11:21:50;;;;;;;13.38;7.25;;;;;;;5.50;60.69;100850.44;4377161;32;34124;-67
2022/01/26 11:24:46;;;;;;;14.13;6.12;;;;;;;5.65;61.03;100849.59;4374848;32;33652;-71
2022/01/26 11:27:15;;;;;;;12.98;6.22;;;;;;;5.28;60.87;100854.91;4376967;32;33486;-69
2022/01/26 11:29:48;;;;;;;12.40;6.80;;;;;;;5.08;62.02;100851.16;4376494;32;33990;-74
2022/01/26 11:32:26;;;;;;;11.82;6.70;;;;;;;5.58;60.88;100859.44;4376862;32;35033;-73
2022/01/26 11:34:57;;;;;;;11.25;7.10;;;;;;;4.99;62.53;100850.41;4364135;32;34175;-71
2022/01/26 11:37:28;;;;;;;11.65;6.32;;;;;;;5.09;62.86;100842.88;4363234;32;33902;-71
2022/01/26 11:45:34;;;;;;;12.88;6.97;;;;;;;5.88;60.10;100838.66;4376392;32;34642;-67
2022/01/26 11:48:09;;;;;;;14.38;6.95;;;;;;;5.91;60.44;100839.09;4376928;32;33655;-67
2022/01/26 11:50:42;;;;;;;13.00;6.80;;;;;;;6.15;59.25;100843.31;4376665;32;34819;-67
2022/01/26 11:53:11;;;;;;;12.98;6.97;;;;;;;6.00;59.48;100845.22;4376594;32;34230;-67
2022/01/26 11:55:43;;;;;;;12.88;5.72;;;;;;;5.69;60.10;100840.09;4362913;32;34431;-66
2022/01/26 11:58:28;;;;;;;12.37;6.70;;;;;;;5.83;60.08;100833.84;4376761;32;34689;-66
2022/01/26 12:03:56;;;;;;;11.80;6.35;;;;;;;5.70;60.56;100839.06;4376371;32;34110;-80
2022/01/26 12:06:35;;;;;;;12.68;6.75;;;;;;;6.28;58.68;100831.81;4376620;32;33472;-70
2022/01/26 12:09:06;;;;;;;10.80;6.37;;;;;;;6.07;58.68;100827.28;4376510;32;33756;-68
2022/01/26 12:11:35;;;;;;;14.32;6.43;;;;;;;6.05;59.38;100820.44;4363052;32;34060;-66
2022/01/26 12:14:05;;;;;;;10.95;6.10;;;;;;;6.18;59.12;100820.53;4376211;32;34838;-71
2022/01/26 12:16:34;;;;;;;11.95;6.95;;;;;;;6.28;58.61;100822.91;4376582;32;33696;-73
2022/01/26 12:43:53;;;;;;;12.35;6.18;;;;;;;5.46;60.67;100789.94;4364028;32;35151;-70
2022/01/26 12:46:29;;;;;;;12.00;7.00;;;;;;;5.74;59.47;100784.66;4362697;32;34018;-66
2022/01/26 12:49:00;;;;;;;9.88;6.00;;;;;;;5.66;60.35;100789.31;4376162;32;34841;-70
2022/01/26 12:51:28;;;;;;;13.62;6.07;;;;;;;5.88;59.63;100782.94;4376336;32;33974;-68
2022/01/26 12:54:02;;;;;;;12.73;6.55;;;;;;;5.76;59.63;100771.81;4362471;32;34228;-70
2022/01/26 12:56:32;;;;;;;12.13;6.75;;;;;;;5.81;59.65;100778.47;4375733;32;33861;-70
2022/01/26 12:59:07;;;;;;;11.80;5.97;;;;;;;5.81;59.29;100779.34;4375785;32;33899;-70
2022/01/26 13:01:35;;;;;;;12.18;6.60;;;;;;;5.42;60.76;100779.72;4362309;32;33688;-65
2022/01/26 13:04:08;;;;;;;2.28;1.85;;;;;;;6.14;58.51;100787.75;4376021;32;34680;-71
2022/01/26 13:06:40;;;;;;;10.60;6.20;;;;;;;6.25;57.37;100785.56;4375790;32;33843;-65
2022/01/26 13:09:24;;;;;;;9.63;5.62;;;;;;;6.00;58.87;100790.50;4361615;32;34608;-71
2022/01/26 13:11:58;;;;;;;8.75;5.20;;;;;;;5.69;58.92;100786.25;4375905;32;34801;-70
2022/01/26 13:14:43;;;;;;;10.13;5.93;;;;;;;5.49;59.84;100786.03;4383707;32;34622;-70
2022/01/26 13:20:12;;;;;;;11.60;6.25;;;;;;;6.02;58.69;100785.78;4388034;32;34138;-67
2022/01/26 13:25:20;;;;;;;10.98;6.32;;;;;;;6.01;58.66;100776.03;4389004;32;35086;-70
2022/01/26 13:28:10;;;;;;;11.40;5.80;;;;;;;5.79;59.12;100772.47;4387519;32;35090;-68
2022/01/26 13:34:02;;;;;;;10.00;6.47;;;;;;;5.62;59.75;100772.72;4386357;32;34829;-67
2022/01/26 13:45:03;;;;;;;11.73;6.15;;;;;;;5.53;60.71;100776.56;4389572;32;34934;-70
2022/01/26 13:50:10;;;;;;;11.88;6.00;;;;;;;6.02;58.64;100777.69;4391026;32;35022;-69
2022/01/26 13:52:46;;;;;;;10.98;5.85;;;;;;;5.75;59.61;100775.53;4387645;32;33317;-69
2022/01/26 13:58:19;;;;;;;10.73;6.30;;;;;;;5.95;58.89;100785.72;4391203;32;33942;-69
2022/01/26 14:00:57;;;;;;;13.60;6.70;;;;;;;6.01;58.88;100784.94;4389556;32;34723;-66
2022/01/26 14:03:28;;;;;;;12.68;6.55;;;;;;;5.90;59.13;100788.12;4388779;32;34350;-69
2022/01/26 14:05:57;;;;;;;11.95;6.05;;;;;;;5.80;58.65;100783.03;4387101;32;34531;-65
2022/01/26 14:08:24;;;;;;;11.35;6.70;;;;;;;5.62;59.38;100779.97;4373138;32;33929;-69
2022/01/26 14:10:52;;;;;;;11.88;6.90;;;;;;;5.57;59.79;100779.69;4375678;32;33899;-70
2022/01/26 14:13:22;;;;;;;12.35;6.75;;;;;;;5.29;59.82;100777.72;4390848;32;33710;-70
2022/01/26 14:15:53;;;;;;;12.90;6.55;;;;;;;5.07;61.01;100782.22;4391139;32;34043;-70
2022/01/26 14:25:48;;;;;;;12.32;6.85;;;;;;;5.31;59.73;100778.38;4390570;32;33797;-69
2022/01/26 14:28:23;;;;;;;11.07;6.32;;;;;;;5.30;60.14;100776.72;4390878;32;33820;-65
2022/01/26 14:31:12;;;;;;;12.45;6.65;;;;;;;5.23;60.46;100775.81;4388421;32;33810;-66
2022/01/26 14:34:22;;;;;;;11.50;6.62;;;;;;;5.05;60.90;100778.88;4390483;32;32567;-65
2022/01/26 15:10:22;;;;;;;16.35;8.35;;;;;;;4.81;61.09;100783.53;4391291;32;33739;-67